首页
METAR-TAF:

METAR-TAF

机场 :

锡布灵, 佛罗里达州, 美国

纬度: 27-27-23N, 经度: 081-20-33W, 海拔: 19米

当前天气观测

该预报发布于36分钟前的00:15 UTC
风速5节,风向东北
温度 29°C
湿度 70%
气压 1018 hPa
能見度: 16.1公里
散云层高于5500英尺
雷暴

METAR: KSEF 160015Z AUTO 05005KT 10SM TS SCT055 29/23 A3006 RMK AO2 LTG DSNT W THRU NE T02940231

时间: 20:51 (00:51 UTC)


TAF: 丢失

超过4000个机场的气象观测和天气预报(METAR&TAF报告)。

可查询的气象台以黄色和红色小点在地图上表示。

将鼠标移到小点上方,可查看气象台名称。

然后点击查看天气观测和预报。

如需切换地图:点击带黑十字的绿色按钮放大地图;点击带横线的绿色按钮缩小地图;或者点击绿色箭头查看邻近地区的地图。


METAR-TAF: